createdAt,value
2019-01-27T00:02:15.521Z,8.11
2019-01-27T00:07:23.162Z,6.65
2019-01-27T00:12:30.878Z,7.08
2019-01-27T00:17:38.566Z,7.11
2019-01-27T00:22:46.273Z,7.49
2019-01-27T00:27:54.116Z,7.54
2019-01-27T00:33:01.828Z,8.13
2019-01-27T00:38:09.479Z,8.26
2019-01-27T00:43:17.168Z,9.62
2019-01-27T00:48:24.814Z,10.23
2019-01-27T00:53:32.537Z,8.65
2019-01-27T00:58:40.210Z,8.68
2019-01-27T01:03:48.172Z,8.51
2019-01-27T01:08:55.852Z,9.93
2019-01-27T01:14:03.504Z,8.72
2019-01-27T01:19:11.152Z,10.49
2019-01-27T01:24:18.855Z,9.94
2019-01-27T01:29:26.573Z,9.45
2019-01-27T01:34:34.246Z,9.49
2019-01-27T01:39:41.889Z,9.71
2019-01-27T01:44:49.655Z,9.56
2019-01-27T01:49:57.557Z,8.98
2019-01-27T01:55:05.230Z,8.14
2019-01-27T02:00:12.885Z,8.68
2019-01-27T02:05:20.580Z,8.79
2019-01-27T02:10:28.221Z,7.74
2019-01-27T02:15:35.896Z,9.55
2019-01-27T02:20:43.551Z,10.45
2019-01-27T02:25:51.294Z,8.35
2019-01-27T02:30:59.148Z,7.24
2019-01-27T02:36:07.026Z,9.13
2019-01-27T02:41:14.660Z,9.29
2019-01-27T02:46:22.382Z,9.37
2019-01-27T02:51:30.009Z,8.75
2019-01-27T02:56:37.665Z,7.06
2019-01-27T03:01:45.313Z,7.01
2019-01-27T03:06:53.052Z,7.42
2019-01-27T03:12:00.677Z,6.38
2019-01-27T03:17:08.413Z,5.80
2019-01-27T03:22:16.103Z,5.74
2019-01-27T03:27:23.785Z,6.80
2019-01-27T03:32:31.442Z,6.31
2019-01-27T03:37:39.140Z,6.12
2019-01-27T03:42:47.101Z,7.50
2019-01-27T03:47:54.837Z,8.11
2019-01-27T03:53:02.488Z,7.22
2019-01-27T03:58:10.249Z,7.60
2019-01-27T04:03:17.915Z,7.25
2019-01-27T04:08:25.619Z,7.83
2019-01-27T04:13:33.242Z,6.23
2019-01-27T04:18:40.945Z,6.37
2019-01-27T04:23:48.559Z,6.80
2019-01-27T04:28:56.273Z,7.37
2019-01-27T04:34:03.954Z,7.35
2019-01-27T04:39:11.657Z,8.13
2019-01-27T04:44:19.380Z,10.06
2019-01-27T04:49:27.088Z,8.25
2019-01-27T04:54:34.776Z,7.22
2019-01-27T04:59:42.513Z,7.23
2019-01-27T05:04:50.165Z,6.75
2019-01-27T05:09:57.800Z,8.73
2019-01-27T05:15:05.441Z,7.64
2019-01-27T05:20:13.149Z,9.26
2019-01-27T05:25:20.798Z,8.84
2019-01-27T05:30:28.496Z,8.41
2019-01-27T05:35:36.135Z,5.67
2019-01-27T05:40:43.849Z,7.07
2019-01-27T05:45:51.519Z,5.47
2019-01-27T05:50:59.234Z,5.73
2019-01-27T05:56:07.191Z,6.31
2019-01-27T06:01:14.890Z,7.14
2019-01-27T06:06:22.549Z,5.93
2019-01-27T06:12:11.006Z,6.85
2019-01-27T06:17:18.713Z,5.64
2019-01-27T06:22:26.755Z,6.56
2019-01-27T06:27:34.441Z,7.26
2019-01-27T06:32:42.150Z,5.78
2019-01-27T06:37:49.774Z,6.75
2019-01-27T06:42:57.569Z,4.99
2019-01-27T06:48:05.213Z,6.20
2019-01-27T06:53:12.974Z,6.46
2019-01-27T06:58:20.644Z,5.29
2019-01-27T07:03:28.377Z,9.91
2019-01-27T07:08:36.018Z,6.76
2019-01-27T07:13:43.724Z,6.36
2019-01-27T07:18:51.376Z,6.55
2019-01-27T07:23:59.048Z,7.00
2019-01-27T07:29:06.673Z,7.76
2019-01-27T07:34:14.437Z,9.61
2019-01-27T07:39:22.143Z,6.95
2019-01-27T07:44:29.871Z,7.60
2019-01-27T07:49:37.544Z,7.63
2019-01-27T07:54:45.260Z,6.71
2019-01-27T07:59:52.944Z,7.87
2019-01-27T08:05:00.744Z,7.80
2019-01-27T08:10:08.610Z,9.58
2019-01-27T08:15:16.327Z,8.19
2019-01-27T08:20:24.225Z,6.23
2019-01-27T08:25:32.192Z,9.61
2019-01-27T08:30:39.780Z,7.31
2019-01-27T08:35:47.522Z,7.61
2019-01-27T08:40:55.228Z,8.35
2019-01-27T08:46:02.925Z,7.61
2019-01-27T08:51:10.565Z,8.98
2019-01-27T08:56:18.305Z,7.94
2019-01-27T09:01:26.157Z,10.97
2019-01-27T09:06:33.961Z,11.68
2019-01-27T09:11:41.635Z,9.64
2019-01-27T09:16:49.333Z,10.60
2019-01-27T09:21:57.031Z,9.37
2019-01-27T09:27:04.729Z,7.25
2019-01-27T09:32:37.336Z,7.57
2019-01-27T09:37:44.977Z,8.78
2019-01-27T09:42:52.613Z,6.06
2019-01-27T09:48:00.246Z,8.39
2019-01-27T09:53:07.869Z,7.52
2019-01-27T09:58:15.525Z,6.64
2019-01-27T10:03:23.146Z,6.44
2019-01-27T10:08:30.834Z,7.09
2019-01-27T10:13:40.928Z,8.74
2019-01-27T10:18:40.494Z,6.83
2019-01-27T10:23:48.134Z,8.06
2019-01-27T10:28:55.849Z,8.62
2019-01-27T10:34:04.687Z,8.28
2019-01-27T10:39:12.384Z,7.48
2019-01-27T10:44:21.188Z,8.27
2019-01-27T10:49:29.209Z,9.74
2019-01-27T10:54:36.856Z,10.30
2019-01-27T10:59:44.572Z,7.91
2019-01-27T11:04:52.212Z,8.89
2019-01-27T11:09:59.921Z,8.58
2019-01-27T11:15:07.561Z,11.58
2019-01-27T11:20:15.197Z,9.71
2019-01-27T11:25:22.837Z,12.02
2019-01-27T11:30:30.536Z,11.59
2019-01-27T11:35:38.237Z,10.01
2019-01-27T11:40:45.952Z,10.91
2019-01-27T11:45:53.834Z,11.91
2019-01-27T11:51:01.744Z,9.61
2019-01-27T11:56:09.413Z,12.14
2019-01-27T12:01:17.244Z,13.43
2019-01-27T12:06:24.852Z,11.21
2019-01-27T12:11:32.570Z,11.67
2019-01-27T12:16:40.207Z,12.73
2019-01-27T12:21:47.900Z,10.88
2019-01-27T12:26:55.608Z,12.41
2019-01-27T12:32:03.306Z,11.83
2019-01-27T12:37:11.247Z,11.74
2019-01-27T12:42:19.029Z,3.84
2019-01-27T12:47:26.938Z,4.05
2019-01-27T12:52:34.626Z,2.92
2019-01-27T12:57:42.289Z,3.17
2019-01-27T13:02:49.947Z,4.44
2019-01-27T13:07:57.589Z,6.43
2019-01-27T13:13:05.289Z,5.51
2019-01-27T13:18:12.940Z,7.92
2019-01-27T13:23:20.650Z,11.75
2019-01-27T13:28:28.270Z,10.40
2019-01-27T13:33:35.932Z,9.27
2019-01-27T13:38:43.557Z,9.71
2019-01-27T13:43:51.301Z,8.24
2019-01-27T13:48:58.956Z,9.52
2019-01-27T13:54:06.734Z,11.25
2019-01-27T13:59:14.367Z,8.91
2019-01-27T14:04:22.060Z,11.09
2019-01-27T14:09:29.702Z,8.83
2019-01-27T14:14:37.448Z,8.97
2019-01-27T14:19:45.109Z,9.34
2019-01-27T14:24:52.784Z,13.87
2019-01-27T14:30:00.419Z,12.13
2019-01-27T14:35:08.092Z,9.53
2019-01-27T14:40:15.757Z,10.97
2019-01-27T14:45:23.448Z,9.68
2019-01-27T14:50:31.237Z,15.39
2019-01-27T14:55:38.885Z,13.68
2019-01-27T15:00:46.554Z,14.80
2019-01-27T15:05:54.354Z,14.65
2019-01-27T15:11:02.005Z,17.02
2019-01-27T15:16:09.896Z,14.73
2019-01-27T15:21:17.546Z,17.84
2019-01-27T15:26:25.232Z,11.51
2019-01-27T15:31:33.178Z,12.60
2019-01-27T15:36:40.934Z,14.73
2019-01-27T15:41:48.574Z,14.78
2019-01-27T15:46:56.908Z,13.20
2019-01-27T15:52:04.608Z,14.79
2019-01-27T15:57:12.323Z,14.12
2019-01-27T16:02:20.087Z,11.97
2019-01-27T16:07:27.860Z,12.81
2019-01-27T16:12:35.499Z,13.23
2019-01-27T16:17:43.231Z,12.62
2019-01-27T16:22:50.881Z,12.95
2019-01-27T16:27:58.533Z,9.58
2019-01-27T16:33:06.200Z,11.51
2019-01-27T16:38:13.941Z,12.31
2019-01-27T16:43:21.603Z,10.37
2019-01-27T16:48:29.320Z,12.08
2019-01-27T16:53:37.320Z,12.50
2019-01-27T16:58:44.989Z,10.95
2019-01-27T17:03:52.814Z,13.47
2019-01-27T17:09:00.809Z,11.04
2019-01-27T17:14:08.460Z,9.13
2019-01-27T17:19:16.174Z,11.27
2019-01-27T17:24:23.801Z,10.76
2019-01-27T17:29:31.542Z,8.18
2019-01-27T17:34:39.436Z,6.72
2019-01-27T17:39:47.155Z,10.54
2019-01-27T17:44:54.794Z,11.70
2019-01-27T17:50:02.532Z,9.99
2019-01-27T17:55:10.197Z,9.61
2019-01-27T18:00:17.856Z,9.85
2019-01-27T18:05:25.598Z,11.87
2019-01-27T18:10:33.254Z,12.93
2019-01-27T18:15:40.899Z,9.95
2019-01-27T18:20:48.545Z,8.59
2019-01-27T18:25:56.199Z,10.53
2019-01-27T18:31:03.870Z,13.04
2019-01-27T18:36:12.191Z,11.93
2019-01-27T18:41:19.806Z,8.14
2019-01-27T18:46:28.036Z,10.39
2019-01-27T18:51:34.737Z,8.51
2019-01-27T18:56:42.408Z,9.49
2019-01-27T19:01:50.065Z,11.91
2019-01-27T19:06:57.778Z,8.38
2019-01-27T19:12:05.393Z,4.92
2019-01-27T19:17:13.035Z,9.24
2019-01-27T19:22:20.693Z,8.90
2019-01-27T19:27:28.338Z,12.58
2019-01-27T19:32:35.967Z,14.03
2019-01-27T19:37:43.625Z,10.46
2019-01-27T19:42:51.313Z,9.51
2019-01-27T19:47:59.072Z,12.76
2019-01-27T19:53:06.720Z,13.90
2019-01-27T19:58:14.437Z,13.24
2019-01-27T20:03:22.146Z,15.65
2019-01-27T20:08:29.857Z,17.60
2019-01-27T20:13:37.616Z,16.42
2019-01-27T20:18:45.289Z,17.09
2019-01-27T20:23:52.995Z,18.01
2019-01-27T20:29:00.634Z,17.77
2019-01-27T20:34:08.354Z,16.41
2019-01-27T20:39:16.012Z,16.45
2019-01-27T20:44:23.693Z,16.53
2019-01-27T20:49:31.344Z,17.68
2019-01-27T20:54:38.993Z,20.20
2019-01-27T20:59:46.716Z,23.21
2019-01-27T21:04:56.606Z,22.24
2019-01-27T21:10:01.687Z,24.64
2019-01-27T21:15:09.378Z,18.66
2019-01-27T21:20:17.102Z,21.27
2019-01-27T21:25:24.764Z,22.92
2019-01-27T21:30:32.468Z,21.99
2019-01-27T21:35:40.168Z,23.09
2019-01-27T21:40:47.824Z,20.07
2019-01-27T21:45:55.793Z,21.35
2019-01-27T21:51:03.564Z,20.05
2019-01-27T21:56:11.261Z,19.38
2019-01-27T22:01:19.002Z,15.59
2019-01-27T22:06:26.696Z,15.23
2019-01-27T22:11:34.366Z,8.99
2019-01-27T22:16:41.993Z,10.39
2019-01-27T22:21:49.684Z,9.65
2019-01-27T22:26:57.317Z,6.97
2019-01-27T22:32:05.080Z,9.22
2019-01-27T22:37:12.905Z,10.61
2019-01-27T22:42:20.761Z,12.93
2019-01-27T22:47:28.429Z,13.60
2019-01-27T22:52:36.093Z,10.75
2019-01-27T22:57:43.720Z,10.15
2019-01-27T23:02:51.672Z,9.60
2019-01-27T23:07:59.316Z,9.77
2019-01-27T23:13:07.019Z,9.78
2019-01-27T23:18:14.697Z,11.85
2019-01-27T23:23:22.362Z,8.72
2019-01-27T23:28:30.072Z,12.93
2019-01-27T23:33:37.746Z,14.38
2019-01-27T23:38:45.419Z,12.00
2019-01-27T23:43:53.050Z,10.43
2019-01-27T23:49:01.098Z,10.92
2019-01-27T23:54:08.772Z,13.09
2019-01-27T23:59:16.742Z,10.86
